< Typhoon 197212 1972 Season Typhoon 197214 >
Typhoon 197213 (ALICE)
General InformationTrack Information on Google Maps || Disaster Info.ResourceGoogle EarthGE AnimationAtom FeedGeoJSON
Detalied Best Track (Time Zone = UTC)
Year Month Day Hour Lat. Long. Pressure (hPa) Wind (kt) Class Image Chart
1972 7 28 00 7.0 162.4 1004 0 2 -- Chart
1972 7 28 06 6.5 162.3 1004 0 2 -- Chart
1972 7 28 12 6.3 162.0 1004 0 2 -- Chart
1972 7 28 18 5.7 161.5 1004 0 2 -- Chart
1972 7 29 00 5.5 161.0 1004 0 2 -- Chart
1972 7 29 06 6.2 160.3 1002 0 2 -- Chart
1972 7 29 12 6.6 160.5 1002 0 2 -- Chart
1972 7 29 18 6.8 160.8 1002 0 2 -- Chart
1972 7 30 00 7.3 161.0 1002 0 2 -- Chart
1972 7 30 06 7.7 161.0 1000 0 2 -- Chart
1972 7 30 12 8.7 160.7 1000 0 2 -- Chart
1972 7 30 18 9.7 160.3 1000 0 2 -- Chart
1972 7 31 00 11.0 160.0 1000 0 2 -- Chart
1972 7 31 06 12.0 159.7 998 0 2 -- Chart
1972 7 31 12 13.0 159.6 998 0 2 -- Chart
1972 7 31 18 14.0 159.4 998 0 2 -- Chart
1972 8 1 00 15.0 159.0 996 0 2 -- Chart
1972 8 1 06 15.8 158.4 990 0 9 -- Chart
1972 8 1 12 16.3 158.0 985 0 9 -- Chart
1972 8 1 18 16.8 157.6 985 0 9 -- Chart
1972 8 2 00 17.3 157.2 980 0 9 -- Chart
1972 8 2 06 18.1 156.6 980 0 9 -- Chart
1972 8 2 12 18.7 156.3 975 0 9 -- Chart
1972 8 2 18 19.5 155.9 970 0 9 -- Chart
1972 8 3 00 20.3 155.5 970 0 9 -- Chart
1972 8 3 06 21.1 155.1 965 0 9 -- Chart
1972 8 3 12 21.8 154.3 965 0 9 -- Chart
1972 8 3 18 22.7 153.4 965 0 9 -- Chart
1972 8 4 00 23.6 152.5 965 0 9 -- Chart
1972 8 4 06 24.6 151.4 965 0 9 -- Chart
1972 8 4 12 25.3 150.3 965 0 9 -- Chart
1972 8 4 18 26.1 149.5 970 0 9 -- Chart
1972 8 5 00 26.9 148.9 970 0 9 -- Chart
1972 8 5 06 27.7 147.4 970 0 9 -- Chart
1972 8 5 12 28.3 146.4 970 0 9 -- Chart
1972 8 5 18 28.9 145.4 970 0 9 -- Chart
1972 8 6 00 30.1 144.2 975 0 9 -- Chart
1972 8 6 06 30.8 143.0 975 0 9 -- Chart
1972 8 6 12 31.9 141.9 975 0 9 -- Chart
1972 8 6 18 33.1 140.8 980 0 9 -- Chart
1972 8 7 00 33.9 140.8 980 0 9 -- Chart
1972 8 7 06 35.5 141.1 985 0 9 -- Chart
1972 8 7 12 37.2 142.0 990 0 9 -- Chart
1972 8 7 18 38.8 143.3 990 0 9 -- Chart
1972 8 8 00 40.6 146.0 990 0 9 -- Chart
1972 8 8 06 41.6 148.1 994 0 9 -- Chart
1972 8 8 12 42.2 149.9 996 0 9 -- Chart
1972 8 8 18 42.7 151.9 996 0 9 -- Chart
1972 8 9 00 43.0 154.0 996 0 9 -- Chart
1972 8 9 06 43.4 156.3 998 0 9 -- Chart
1972 8 9 12 43.7 158.7 998 0 9 -- Chart
1972 8 9 18 43.8 161.3 1002 0 2 -- Chart
1972 8 10 00 41.0 165.0 1000 0 6 -- Chart
1972 8 10 06 39.9 167.0 1000 0 6 -- Chart
1972 8 10 12 38.9 168.0 1000 0 6 -- Chart
1972 8 10 18 39.0 170.0 1000 0 6 -- Chart
1972 8 11 00 39.0 172.0 1000 0 6 -- Chart
1972 8 11 06 40.0 173.0 1000 0 6 -- Chart
1972 8 11 12 41.0 174.0 1000 0 6 -- Chart
1972 8 11 18 42.0 175.0 1000 0 6 -- Chart
1972 8 12 00 43.0 176.0 996 0 6 -- Chart
1972 8 12 06 44.0 177.0 998 0 6 -- Chart
Japan Meteorological Agency Best Track Data | Correction Date : 1989-06-01
< Typhoon 197212 1972 Season Typhoon 197214 >

Help